sensor_id;sensor_type;location;lat;lon;timestamp;P1;durP1;ratioP1;P2;durP2;ratioP2
18574;SDS011;9417;16.484;102.872;2022-12-18T00:01:49;42.97;;;21.83;;
18574;SDS011;9417;16.484;102.872;2022-12-18T00:03:57;39.65;;;21.98;;
18574;SDS011;9417;16.484;102.872;2022-12-18T00:06:04;38.60;;;21.90;;
18574;SDS011;9417;16.484;102.872;2022-12-18T00:08:12;42.50;;;22.17;;
18574;SDS011;9417;16.484;102.872;2022-12-18T00:10:19;46.72;;;22.45;;
18574;SDS011;9417;16.484;102.872;2022-12-18T00:12:26;34.97;;;21.75;;
18574;SDS011;9417;16.484;102.872;2022-12-18T00:14:35;43.53;;;22.75;;
18574;SDS011;9417;16.484;102.872;2022-12-18T00:16:43;40.38;;;22.10;;
18574;SDS011;9417;16.484;102.872;2022-12-18T00:18:52;48.20;;;22.75;;
18574;SDS011;9417;16.484;102.872;2022-12-18T00:21:02;41.28;;;22.20;;
18574;SDS011;9417;16.484;102.872;2022-12-18T00:23:11;37.78;;;21.40;;
18574;SDS011;9417;16.484;102.872;2022-12-18T00:25:19;41.50;;;22.80;;
18574;SDS011;9417;16.484;102.872;2022-12-18T00:27:26;34.22;;;21.45;;
18574;SDS011;9417;16.484;102.872;2022-12-18T00:29:35;41.45;;;22.40;;
18574;SDS011;9417;16.484;102.872;2022-12-18T00:31:45;40.80;;;21.55;;
18574;SDS011;9417;16.484;102.872;2022-12-18T00:33:53;38.45;;;21.42;;
18574;SDS011;9417;16.484;102.872;2022-12-18T00:36:01;35.55;;;21.25;;
18574;SDS011;9417;16.484;102.872;2022-12-18T00:38:08;41.80;;;22.33;;
18574;SDS011;9417;16.484;102.872;2022-12-18T00:40:16;36.63;;;20.88;;
18574;SDS011;9417;16.484;102.872;2022-12-18T00:42:23;42.60;;;21.60;;
18574;SDS011;9417;16.484;102.872;2022-12-18T00:44:48;40.42;;;20.25;;
18574;SDS011;9417;16.484;102.872;2022-12-18T00:46:55;36.97;;;22.38;;
18574;SDS011;9417;16.484;102.872;2022-12-18T00:49:02;38.53;;;21.92;;
18574;SDS011;9417;16.484;102.872;2022-12-18T00:51:10;41.42;;;22.77;;
18574;SDS011;9417;16.484;102.872;2022-12-18T00:53:17;42.45;;;22.65;;
18574;SDS011;9417;16.484;102.872;2022-12-18T00:55:24;44.22;;;22.92;;
18574;SDS011;9417;16.484;102.872;2022-12-18T00:57:31;34.45;;;20.80;;
18574;SDS011;9417;16.484;102.872;2022-12-18T00:59:39;43.58;;;21.80;;
18574;SDS011;9417;16.484;102.872;2022-12-18T01:01:47;33.30;;;20.48;;
18574;SDS011;9417;16.484;102.872;2022-12-18T01:03:55;33.85;;;20.52;;
18574;SDS011;9417;16.484;102.872;2022-12-18T01:06:05;38.45;;;21.27;;
18574;SDS011;9417;16.484;102.872;2022-12-18T01:08:13;34.58;;;20.02;;
18574;SDS011;9417;16.484;102.872;2022-12-18T01:10:20;36.83;;;21.08;;
18574;SDS011;9417;16.484;102.872;2022-12-18T01:12:32;33.45;;;20.90;;
18574;SDS011;9417;16.484;102.872;2022-12-18T01:14:39;37.70;;;21.00;;
18574;SDS011;9417;16.484;102.872;2022-12-18T01:16:48;36.85;;;21.63;;
18574;SDS011;9417;16.484;102.872;2022-12-18T01:18:54;41.80;;;20.40;;
18574;SDS011;9417;16.484;102.872;2022-12-18T01:21:05;43.80;;;21.48;;
18574;SDS011;9417;16.484;102.872;2022-12-18T01:23:13;35.90;;;21.65;;
18574;SDS011;9417;16.484;102.872;2022-12-18T01:25:20;39.45;;;21.80;;
18574;SDS011;9417;16.484;102.872;2022-12-18T01:27:28;37.97;;;20.95;;
18574;SDS011;9417;16.484;102.872;2022-12-18T01:29:38;37.53;;;20.75;;
18574;SDS011;9417;16.484;102.872;2022-12-18T01:31:47;32.05;;;18.85;;
18574;SDS011;9417;16.484;102.872;2022-12-18T01:33:55;33.05;;;18.08;;
18574;SDS011;9417;16.484;102.872;2022-12-18T01:36:03;34.70;;;18.45;;
18574;SDS011;9417;16.484;102.872;2022-12-18T01:38:10;27.63;;;17.80;;
18574;SDS011;9417;16.484;102.872;2022-12-18T01:40:17;35.85;;;17.65;;
18574;SDS011;9417;16.484;102.872;2022-12-18T01:42:26;33.05;;;17.92;;
18574;SDS011;9417;16.484;102.872;2022-12-18T01:44:51;32.67;;;17.73;;
18574;SDS011;9417;16.484;102.872;2022-12-18T01:47:04;35.72;;;18.45;;
18574;SDS011;9417;16.484;102.872;2022-12-18T01:49:11;28.70;;;17.15;;
18574;SDS011;9417;16.484;102.872;2022-12-18T01:51:19;29.55;;;18.50;;
18574;SDS011;9417;16.484;102.872;2022-12-18T01:53:26;40.08;;;17.25;;
18574;SDS011;9417;16.484;102.872;2022-12-18T01:55:37;29.75;;;16.98;;
18574;SDS011;9417;16.484;102.872;2022-12-18T01:57:49;33.05;;;17.67;;
18574;SDS011;9417;16.484;102.872;2022-12-18T01:59:59;28.88;;;16.33;;
18574;SDS011;9417;16.484;102.872;2022-12-18T02:02:15;27.17;;;16.38;;
18574;SDS011;9417;16.484;102.872;2022-12-18T02:04:24;26.10;;;14.95;;
18574;SDS011;9417;16.484;102.872;2022-12-18T02:06:33;37.30;;;16.17;;
18574;SDS011;9417;16.484;102.872;2022-12-18T02:08:49;31.13;;;15.18;;
18574;SDS011;9417;16.484;102.872;2022-12-18T02:11:05;26.77;;;14.45;;
18574;SDS011;9417;16.484;102.872;2022-12-18T02:13:23;25.30;;;14.98;;
18574;SDS011;9417;16.484;102.872;2022-12-18T02:15:36;24.98;;;15.68;;
18574;SDS011;9417;16.484;102.872;2022-12-18T02:17:52;26.30;;;13.93;;
18574;SDS011;9417;16.484;102.872;2022-12-18T02:20:06;25.25;;;15.02;;
18574;SDS011;9417;16.484;102.872;2022-12-18T02:22:23;30.33;;;14.27;;
18574;SDS011;9417;16.484;102.872;2022-12-18T02:24:35;27.98;;;13.32;;
18574;SDS011;9417;16.484;102.872;2022-12-18T02:26:55;22.88;;;13.85;;
18574;SDS011;9417;16.484;102.872;2022-12-18T02:29:12;27.77;;;13.75;;
18574;SDS011;9417;16.484;102.872;2022-12-18T02:31:22;29.83;;;13.98;;
18574;SDS011;9417;16.484;102.872;2022-12-18T02:33:32;23.25;;;13.60;;
18574;SDS011;9417;16.484;102.872;2022-12-18T02:35:42;25.23;;;13.07;;
18574;SDS011;9417;16.484;102.872;2022-12-18T02:37:51;21.52;;;12.73;;
18574;SDS011;9417;16.484;102.872;2022-12-18T02:40:03;24.35;;;12.77;;
18574;SDS011;9417;16.484;102.872;2022-12-18T02:42:14;27.05;;;14.73;;
18574;SDS011;9417;16.484;102.872;2022-12-18T02:44:22;22.98;;;12.55;;
18574;SDS011;9417;16.484;102.872;2022-12-18T02:46:31;22.58;;;12.77;;
18574;SDS011;9417;16.484;102.872;2022-12-18T02:48:45;25.30;;;13.77;;
18574;SDS011;9417;16.484;102.872;2022-12-18T02:50:55;25.42;;;12.55;;
18574;SDS011;9417;16.484;102.872;2022-12-18T02:53:11;24.10;;;13.00;;
18574;SDS011;9417;16.484;102.872;2022-12-18T02:55:28;27.48;;;12.95;;
18574;SDS011;9417;16.484;102.872;2022-12-18T02:57:52;22.13;;;12.80;;
18574;SDS011;9417;16.484;102.872;2022-12-18T03:00:09;26.92;;;12.57;;
18574;SDS011;9417;16.484;102.872;2022-12-18T03:02:20;21.58;;;12.70;;
18574;SDS011;9417;16.484;102.872;2022-12-18T03:04:30;22.13;;;12.77;;
18574;SDS011;9417;16.484;102.872;2022-12-18T03:06:46;21.65;;;11.82;;
18574;SDS011;9417;16.484;102.872;2022-12-18T03:08:57;18.88;;;11.95;;
18574;SDS011;9417;16.484;102.872;2022-12-18T03:11:07;31.38;;;11.68;;
18574;SDS011;9417;16.484;102.872;2022-12-18T03:13:19;20.90;;;12.45;;
18574;SDS011;9417;16.484;102.872;2022-12-18T03:15:33;29.02;;;13.30;;
18574;SDS011;9417;16.484;102.872;2022-12-18T03:17:45;18.77;;;12.45;;
18574;SDS011;9417;16.484;102.872;2022-12-18T03:20:03;16.63;;;11.02;;
18574;SDS011;9417;16.484;102.872;2022-12-18T03:22:12;27.10;;;12.13;;
18574;SDS011;9417;16.484;102.872;2022-12-18T03:24:25;27.80;;;13.27;;
18574;SDS011;9417;16.484;102.872;2022-12-18T03:26:35;27.50;;;12.95;;
18574;SDS011;9417;16.484;102.872;2022-12-18T03:28:51;21.88;;;12.60;;
18574;SDS011;9417;16.484;102.872;2022-12-18T03:31:02;24.13;;;12.23;;
18574;SDS011;9417;16.484;102.872;2022-12-18T03:33:15;26.15;;;14.73;;
18574;SDS011;9417;16.484;102.872;2022-12-18T03:35:26;38.95;;;25.83;;
18574;SDS011;9417;16.484;102.872;2022-12-18T03:37:39;21.50;;;13.73;;
18574;SDS011;9417;16.484;102.872;2022-12-18T03:39:47;24.50;;;13.77;;
18574;SDS011;9417;16.484;102.872;2022-12-18T03:41:55;26.23;;;12.95;;
18574;SDS011;9417;16.484;102.872;2022-12-18T03:44:13;37.97;;;21.05;;
18574;SDS011;9417;16.484;102.872;2022-12-18T03:46:26;26.52;;;14.55;;
18574;SDS011;9417;16.484;102.872;2022-12-18T03:48:40;33.35;;;19.95;;
18574;SDS011;9417;16.484;102.872;2022-12-18T03:50:54;26.15;;;13.45;;
18574;SDS011;9417;16.484;102.872;2022-12-18T03:53:05;19.83;;;11.98;;
18574;SDS011;9417;16.484;102.872;2022-12-18T03:55:22;31.77;;;13.80;;
18574;SDS011;9417;16.484;102.872;2022-12-18T03:57:34;26.23;;;11.95;;
18574;SDS011;9417;16.484;102.872;2022-12-18T03:59:44;24.63;;;11.60;;
18574;SDS011;9417;16.484;102.872;2022-12-18T04:01:59;21.33;;;11.52;;
18574;SDS011;9417;16.484;102.872;2022-12-18T04:04:09;23.33;;;12.82;;
18574;SDS011;9417;16.484;102.872;2022-12-18T04:06:19;22.45;;;12.88;;
18574;SDS011;9417;16.484;102.872;2022-12-18T04:08:27;18.77;;;10.48;;
18574;SDS011;9417;16.484;102.872;2022-12-18T04:12:46;24.55;;;12.38;;
18574;SDS011;9417;16.484;102.872;2022-12-18T04:14:55;26.00;;;14.07;;
18574;SDS011;9417;16.484;102.872;2022-12-18T04:17:02;20.23;;;11.35;;
18574;SDS011;9417;16.484;102.872;2022-12-18T04:19:10;24.35;;;10.98;;
18574;SDS011;9417;16.484;102.872;2022-12-18T04:21:19;22.30;;;11.18;;
18574;SDS011;9417;16.484;102.872;2022-12-18T04:23:27;22.08;;;11.43;;
18574;SDS011;9417;16.484;102.872;2022-12-18T04:25:34;19.45;;;10.13;;
18574;SDS011;9417;16.484;102.872;2022-12-18T04:27:45;21.20;;;11.07;;
18574;SDS011;9417;16.484;102.872;2022-12-18T04:29:53;20.38;;;10.65;;
18574;SDS011;9417;16.484;102.872;2022-12-18T04:32:01;22.92;;;13.55;;
18574;SDS011;9417;16.484;102.872;2022-12-18T04:34:09;23.88;;;11.13;;
18574;SDS011;9417;16.484;102.872;2022-12-18T04:36:22;23.35;;;13.52;;
18574;SDS011;9417;16.484;102.872;2022-12-18T04:38:30;27.67;;;15.10;;
18574;SDS011;9417;16.484;102.872;2022-12-18T04:42:56;27.52;;;13.70;;
18574;SDS011;9417;16.484;102.872;2022-12-18T04:45:05;21.00;;;11.10;;
18574;SDS011;9417;16.484;102.872;2022-12-18T04:47:13;20.38;;;10.60;;
18574;SDS011;9417;16.484;102.872;2022-12-18T04:49:21;19.88;;;11.07;;
18574;SDS011;9417;16.484;102.872;2022-12-18T04:51:28;18.48;;;10.57;;
18574;SDS011;9417;16.484;102.872;2022-12-18T04:53:35;22.13;;;10.48;;
18574;SDS011;9417;16.484;102.872;2022-12-18T04:55:43;17.70;;;9.80;;
18574;SDS011;9417;16.484;102.872;2022-12-18T04:57:50;16.92;;;10.02;;
18574;SDS011;9417;16.484;102.872;2022-12-18T04:59:58;20.58;;;9.88;;
18574;SDS011;9417;16.484;102.872;2022-12-18T05:02:07;17.33;;;10.35;;
18574;SDS011;9417;16.484;102.872;2022-12-18T05:04:14;21.17;;;10.45;;
18574;SDS011;9417;16.484;102.872;2022-12-18T05:06:21;21.25;;;11.13;;
18574;SDS011;9417;16.484;102.872;2022-12-18T05:08:29;21.77;;;12.05;;
18574;SDS011;9417;16.484;102.872;2022-12-18T05:10:36;17.50;;;10.77;;
18574;SDS011;9417;16.484;102.872;2022-12-18T05:12:43;21.20;;;11.10;;
18574;SDS011;9417;16.484;102.872;2022-12-18T05:15:05;20.15;;;9.65;;
18574;SDS011;9417;16.484;102.872;2022-12-18T05:17:15;24.00;;;10.32;;
18574;SDS011;9417;16.484;102.872;2022-12-18T05:19:22;18.33;;;10.52;;
18574;SDS011;9417;16.484;102.872;2022-12-18T05:21:30;23.35;;;11.45;;
18574;SDS011;9417;16.484;102.872;2022-12-18T05:23:36;19.98;;;10.85;;
18574;SDS011;9417;16.484;102.872;2022-12-18T05:25:46;27.20;;;10.80;;
18574;SDS011;9417;16.484;102.872;2022-12-18T05:27:56;18.48;;;9.93;;
18574;SDS011;9417;16.484;102.872;2022-12-18T05:30:03;19.88;;;9.90;;
18574;SDS011;9417;16.484;102.872;2022-12-18T05:32:11;20.48;;;10.68;;
18574;SDS011;9417;16.484;102.872;2022-12-18T05:34:20;16.20;;;9.43;;
18574;SDS011;9417;16.484;102.872;2022-12-18T05:36:27;18.10;;;10.15;;
18574;SDS011;9417;16.484;102.872;2022-12-18T05:38:35;23.00;;;10.30;;
18574;SDS011;9417;16.484;102.872;2022-12-18T05:40:43;24.13;;;9.70;;
18574;SDS011;9417;16.484;102.872;2022-12-18T05:42:50;17.88;;;10.15;;
18574;SDS011;9417;16.484;102.872;2022-12-18T05:44:57;23.00;;;11.00;;
18574;SDS011;9417;16.484;102.872;2022-12-18T05:47:04;17.23;;;10.38;;
18574;SDS011;9417;16.484;102.872;2022-12-18T05:49:11;23.40;;;10.60;;
18574;SDS011;9417;16.484;102.872;2022-12-18T05:51:20;23.02;;;11.52;;
18574;SDS011;9417;16.484;102.872;2022-12-18T05:53:28;18.52;;;10.00;;
18574;SDS011;9417;16.484;102.872;2022-12-18T05:55:35;18.58;;;10.10;;
18574;SDS011;9417;16.484;102.872;2022-12-18T05:57:43;18.27;;;10.23;;
18574;SDS011;9417;16.484;102.872;2022-12-18T05:59:50;18.67;;;9.68;;
18574;SDS011;9417;16.484;102.872;2022-12-18T06:01:57;18.50;;;10.85;;
18574;SDS011;9417;16.484;102.872;2022-12-18T06:04:04;21.67;;;9.80;;
18574;SDS011;9417;16.484;102.872;2022-12-18T06:06:13;18.80;;;9.25;;
18574;SDS011;9417;16.484;102.872;2022-12-18T06:08:22;18.25;;;9.88;;
18574;SDS011;9417;16.484;102.872;2022-12-18T06:10:29;19.70;;;9.18;;
18574;SDS011;9417;16.484;102.872;2022-12-18T06:12:37;22.92;;;10.05;;
18574;SDS011;9417;16.484;102.872;2022-12-18T06:14:44;17.00;;;9.65;;
18574;SDS011;9417;16.484;102.872;2022-12-18T06:16:51;16.13;;;9.00;;
18574;SDS011;9417;16.484;102.872;2022-12-18T06:18:58;18.88;;;9.95;;
18574;SDS011;9417;16.484;102.872;2022-12-18T06:21:06;20.42;;;10.38;;
18574;SDS011;9417;16.484;102.872;2022-12-18T06:23:13;18.05;;;10.30;;
18574;SDS011;9417;16.484;102.872;2022-12-18T06:25:22;22.65;;;11.07;;
18574;SDS011;9417;16.484;102.872;2022-12-18T06:27:29;22.70;;;10.43;;
18574;SDS011;9417;16.484;102.872;2022-12-18T06:29:36;17.60;;;10.35;;
18574;SDS011;9417;16.484;102.872;2022-12-18T06:31:44;20.95;;;9.57;;
18574;SDS011;9417;16.484;102.872;2022-12-18T06:33:51;22.25;;;9.82;;
18574;SDS011;9417;16.484;102.872;2022-12-18T06:35:59;15.55;;;9.20;;
18574;SDS011;9417;16.484;102.872;2022-12-18T06:38:07;20.13;;;11.77;;
18574;SDS011;9417;16.484;102.872;2022-12-18T06:40:15;19.55;;;9.73;;
18574;SDS011;9417;16.484;102.872;2022-12-18T06:42:24;18.67;;;11.52;;
18574;SDS011;9417;16.484;102.872;2022-12-18T06:44:31;25.48;;;10.90;;
18574;SDS011;9417;16.484;102.872;2022-12-18T06:46:38;27.80;;;11.93;;
18574;SDS011;9417;16.484;102.872;2022-12-18T06:48:46;19.20;;;9.80;;
18574;SDS011;9417;16.484;102.872;2022-12-18T06:50:54;20.60;;;10.40;;
18574;SDS011;9417;16.484;102.872;2022-12-18T06:53:02;22.23;;;9.52;;
18574;SDS011;9417;16.484;102.872;2022-12-18T06:55:09;25.52;;;9.98;;
18574;SDS011;9417;16.484;102.872;2022-12-18T06:57:17;20.75;;;10.40;;
18574;SDS011;9417;16.484;102.872;2022-12-18T06:59:26;21.10;;;9.57;;
18574;SDS011;9417;16.484;102.872;2022-12-18T07:01:33;19.05;;;9.82;;
18574;SDS011;9417;16.484;102.872;2022-12-18T07:03:40;16.05;;;9.35;;
18574;SDS011;9417;16.484;102.872;2022-12-18T07:05:48;18.75;;;9.30;;
18574;SDS011;9417;16.484;102.872;2022-12-18T07:07:55;16.52;;;8.70;;
18574;SDS011;9417;16.484;102.872;2022-12-18T07:10:03;20.17;;;9.90;;
18574;SDS011;9417;16.484;102.872;2022-12-18T07:12:10;19.15;;;9.05;;
18574;SDS011;9417;16.484;102.872;2022-12-18T07:14:18;19.40;;;9.45;;
18574;SDS011;9417;16.484;102.872;2022-12-18T07:16:27;18.50;;;10.00;;
18574;SDS011;9417;16.484;102.872;2022-12-18T07:18:34;24.52;;;10.15;;
18574;SDS011;9417;16.484;102.872;2022-12-18T07:20:41;21.02;;;8.85;;
18574;SDS011;9417;16.484;102.872;2022-12-18T07:22:49;17.40;;;8.77;;
18574;SDS011;9417;16.484;102.872;2022-12-18T07:24:57;14.95;;;8.93;;
18574;SDS011;9417;16.484;102.872;2022-12-18T07:27:05;18.10;;;9.38;;
18574;SDS011;9417;16.484;102.872;2022-12-18T07:29:12;18.58;;;9.02;;
18574;SDS011;9417;16.484;102.872;2022-12-18T07:31:20;17.40;;;9.38;;
18574;SDS011;9417;16.484;102.872;2022-12-18T07:33:29;17.38;;;8.45;;
18574;SDS011;9417;16.484;102.872;2022-12-18T07:35:37;19.92;;;8.65;;
18574;SDS011;9417;16.484;102.872;2022-12-18T07:37:44;18.35;;;9.48;;
18574;SDS011;9417;16.484;102.872;2022-12-18T07:39:51;15.90;;;8.73;;
18574;SDS011;9417;16.484;102.872;2022-12-18T07:41:58;21.27;;;8.98;;
18574;SDS011;9417;16.484;102.872;2022-12-18T07:44:23;18.80;;;9.43;;
18574;SDS011;9417;16.484;102.872;2022-12-18T07:46:30;20.30;;;8.77;;
18574;SDS011;9417;16.484;102.872;2022-12-18T07:48:39;25.05;;;9.93;;
18574;SDS011;9417;16.484;102.872;2022-12-18T07:50:51;19.58;;;9.05;;
18574;SDS011;9417;16.484;102.872;2022-12-18T07:52:58;17.60;;;8.55;;
18574;SDS011;9417;16.484;102.872;2022-12-18T07:55:07;15.15;;;8.38;;
18574;SDS011;9417;16.484;102.872;2022-12-18T07:57:14;17.58;;;8.90;;
18574;SDS011;9417;16.484;102.872;2022-12-18T07:59:41;16.45;;;9.07;;
18574;SDS011;9417;16.484;102.872;2022-12-18T08:01:49;20.10;;;9.40;;
18574;SDS011;9417;16.484;102.872;2022-12-18T08:03:58;20.27;;;9.00;;
18574;SDS011;9417;16.484;102.872;2022-12-18T08:06:07;17.80;;;8.80;;
18574;SDS011;9417;16.484;102.872;2022-12-18T08:08:14;16.35;;;8.07;;
18574;SDS011;9417;16.484;102.872;2022-12-18T08:10:22;15.35;;;8.50;;
18574;SDS011;9417;16.484;102.872;2022-12-18T08:12:28;20.80;;;8.88;;
18574;SDS011;9417;16.484;102.872;2022-12-18T08:14:36;24.10;;;13.77;;
18574;SDS011;9417;16.484;102.872;2022-12-18T08:16:43;20.75;;;12.70;;
18574;SDS011;9417;16.484;102.872;2022-12-18T08:18:52;15.98;;;8.80;;
18574;SDS011;9417;16.484;102.872;2022-12-18T08:21:09;19.35;;;8.25;;
18574;SDS011;9417;16.484;102.872;2022-12-18T08:23:17;19.50;;;8.75;;
18574;SDS011;9417;16.484;102.872;2022-12-18T08:25:24;14.70;;;8.60;;
18574;SDS011;9417;16.484;102.872;2022-12-18T08:27:31;16.42;;;8.65;;
18574;SDS011;9417;16.484;102.872;2022-12-18T08:29:38;21.73;;;9.05;;
18574;SDS011;9417;16.484;102.872;2022-12-18T08:31:46;14.75;;;8.00;;
18574;SDS011;9417;16.484;102.872;2022-12-18T08:33:54;15.00;;;8.43;;
18574;SDS011;9417;16.484;102.872;2022-12-18T08:36:01;18.23;;;8.73;;
18574;SDS011;9417;16.484;102.872;2022-12-18T08:38:11;16.90;;;8.13;;
18574;SDS011;9417;16.484;102.872;2022-12-18T08:40:18;15.05;;;8.05;;
18574;SDS011;9417;16.484;102.872;2022-12-18T08:42:25;16.40;;;8.82;;
18574;SDS011;9417;16.484;102.872;2022-12-18T08:44:49;14.30;;;8.40;;
18574;SDS011;9417;16.484;102.872;2022-12-18T08:46:56;16.98;;;8.70;;
18574;SDS011;9417;16.484;102.872;2022-12-18T08:49:04;16.10;;;8.90;;
18574;SDS011;9417;16.484;102.872;2022-12-18T08:51:11;22.73;;;8.40;;
18574;SDS011;9417;16.484;102.872;2022-12-18T08:53:21;19.17;;;9.00;;
18574;SDS011;9417;16.484;102.872;2022-12-18T08:55:34;23.25;;;10.65;;
18574;SDS011;9417;16.484;102.872;2022-12-18T08:57:41;25.02;;;14.38;;
18574;SDS011;9417;16.484;102.872;2022-12-18T08:59:48;24.52;;;13.02;;
18574;SDS011;9417;16.484;102.872;2022-12-18T09:01:55;18.48;;;8.95;;
18574;SDS011;9417;16.484;102.872;2022-12-18T09:04:02;16.55;;;9.15;;
18574;SDS011;9417;16.484;102.872;2022-12-18T09:06:12;19.50;;;11.68;;
18574;SDS011;9417;16.484;102.872;2022-12-18T09:08:22;21.42;;;9.77;;
18574;SDS011;9417;16.484;102.872;2022-12-18T09:10:29;18.23;;;9.23;;
18574;SDS011;9417;16.484;102.872;2022-12-18T09:12:44;24.85;;;9.18;;
18574;SDS011;9417;16.484;102.872;2022-12-18T09:14:52;21.05;;;9.80;;
18574;SDS011;9417;16.484;102.872;2022-12-18T09:16:59;20.85;;;9.73;;
18574;SDS011;9417;16.484;102.872;2022-12-18T09:19:07;18.20;;;9.02;;
18574;SDS011;9417;16.484;102.872;2022-12-18T09:21:15;17.10;;;9.10;;
18574;SDS011;9417;16.484;102.872;2022-12-18T09:23:25;19.05;;;8.90;;
18574;SDS011;9417;16.484;102.872;2022-12-18T09:25:32;15.32;;;8.65;;
18574;SDS011;9417;16.484;102.872;2022-12-18T09:27:40;21.55;;;10.93;;
18574;SDS011;9417;16.484;102.872;2022-12-18T09:29:47;24.05;;;11.52;;
18574;SDS011;9417;16.484;102.872;2022-12-18T09:31:55;23.42;;;11.93;;
18574;SDS011;9417;16.484;102.872;2022-12-18T09:34:02;19.05;;;9.45;;
18574;SDS011;9417;16.484;102.872;2022-12-18T09:36:10;16.95;;;9.45;;
18574;SDS011;9417;16.484;102.872;2022-12-18T09:38:19;20.30;;;9.25;;
18574;SDS011;9417;16.484;102.872;2022-12-18T09:40:28;22.77;;;9.68;;
18574;SDS011;9417;16.484;102.872;2022-12-18T09:42:41;21.90;;;9.40;;
18574;SDS011;9417;16.484;102.872;2022-12-18T09:44:54;18.73;;;9.60;;
18574;SDS011;9417;16.484;102.872;2022-12-18T09:47:05;15.30;;;9.15;;
18574;SDS011;9417;16.484;102.872;2022-12-18T09:49:16;18.65;;;9.77;;
18574;SDS011;9417;16.484;102.872;2022-12-18T09:51:27;20.08;;;10.88;;
18574;SDS011;9417;16.484;102.872;2022-12-18T09:53:38;25.50;;;11.27;;
18574;SDS011;9417;16.484;102.872;2022-12-18T09:55:49;21.48;;;10.93;;
18574;SDS011;9417;16.484;102.872;2022-12-18T10:00:11;17.25;;;11.40;;
18574;SDS011;9417;16.484;102.872;2022-12-18T10:02:24;30.25;;;15.63;;
18574;SDS011;9417;16.484;102.872;2022-12-18T10:04:32;34.15;;;18.83;;
18574;SDS011;9417;16.484;102.872;2022-12-18T10:06:41;28.00;;;17.20;;
18574;SDS011;9417;16.484;102.872;2022-12-18T10:08:53;30.33;;;16.30;;
18574;SDS011;9417;16.484;102.872;2022-12-18T10:11:13;26.65;;;14.40;;
18574;SDS011;9417;16.484;102.872;2022-12-18T10:13:28;28.95;;;12.07;;
18574;SDS011;9417;16.484;102.872;2022-12-18T10:15:44;22.55;;;12.57;;
18574;SDS011;9417;16.484;102.872;2022-12-18T10:18:01;27.63;;;12.32;;
18574;SDS011;9417;16.484;102.872;2022-12-18T10:20:25;21.65;;;12.90;;
18574;SDS011;9417;16.484;102.872;2022-12-18T10:22:43;25.80;;;14.32;;
18574;SDS011;9417;16.484;102.872;2022-12-18T10:24:57;28.80;;;13.93;;
18574;SDS011;9417;16.484;102.872;2022-12-18T10:27:12;33.45;;;18.23;;
18574;SDS011;9417;16.484;102.872;2022-12-18T10:29:21;33.40;;;21.55;;
18574;SDS011;9417;16.484;102.872;2022-12-18T10:31:30;37.10;;;21.00;;
18574;SDS011;9417;16.484;102.872;2022-12-18T10:33:38;36.35;;;20.42;;
18574;SDS011;9417;16.484;102.872;2022-12-18T10:35:45;35.30;;;20.02;;
18574;SDS011;9417;16.484;102.872;2022-12-18T10:38:05;30.45;;;17.35;;
18574;SDS011;9417;16.484;102.872;2022-12-18T10:40:25;30.10;;;17.38;;
18574;SDS011;9417;16.484;102.872;2022-12-18T10:42:34;32.35;;;16.13;;
18574;SDS011;9417;16.484;102.872;2022-12-18T10:44:42;26.40;;;15.85;;
18574;SDS011;9417;16.484;102.872;2022-12-18T10:46:49;26.23;;;14.13;;
18574;SDS011;9417;16.484;102.872;2022-12-18T10:48:59;25.83;;;13.43;;
18574;SDS011;9417;16.484;102.872;2022-12-18T10:51:06;26.00;;;13.38;;
18574;SDS011;9417;16.484;102.872;2022-12-18T10:53:18;25.42;;;14.82;;
18574;SDS011;9417;16.484;102.872;2022-12-18T10:55:30;29.85;;;16.15;;
18574;SDS011;9417;16.484;102.872;2022-12-18T10:57:42;32.65;;;16.27;;
18574;SDS011;9417;16.484;102.872;2022-12-18T10:59:53;27.58;;;15.90;;
18574;SDS011;9417;16.484;102.872;2022-12-18T11:02:07;29.38;;;14.15;;
18574;SDS011;9417;16.484;102.872;2022-12-18T11:04:32;23.77;;;12.98;;
18574;SDS011;9417;16.484;102.872;2022-12-18T11:06:51;24.88;;;12.77;;
18574;SDS011;9417;16.484;102.872;2022-12-18T11:09:03;19.02;;;12.40;;
18574;SDS011;9417;16.484;102.872;2022-12-18T11:11:19;24.95;;;12.02;;
18574;SDS011;9417;16.484;102.872;2022-12-18T11:13:29;22.65;;;13.00;;
18574;SDS011;9417;16.484;102.872;2022-12-18T11:15:36;28.80;;;14.02;;
18574;SDS011;9417;16.484;102.872;2022-12-18T11:17:47;34.35;;;13.27;;
18574;SDS011;9417;16.484;102.872;2022-12-18T11:19:55;22.88;;;15.02;;
18574;SDS011;9417;16.484;102.872;2022-12-18T11:22:17;24.45;;;14.38;;
18574;SDS011;9417;16.484;102.872;2022-12-18T11:24:29;24.15;;;14.00;;
18574;SDS011;9417;16.484;102.872;2022-12-18T11:26:37;26.73;;;15.90;;
18574;SDS011;9417;16.484;102.872;2022-12-18T11:28:49;30.00;;;16.70;;
18574;SDS011;9417;16.484;102.872;2022-12-18T11:31:17;32.08;;;16.52;;
18574;SDS011;9417;16.484;102.872;2022-12-18T11:33:31;34.35;;;17.10;;
18574;SDS011;9417;16.484;102.872;2022-12-18T11:35:39;41.03;;;18.80;;
18574;SDS011;9417;16.484;102.872;2022-12-18T11:37:54;39.05;;;20.60;;
18574;SDS011;9417;16.484;102.872;2022-12-18T11:40:09;45.70;;;21.42;;
18574;SDS011;9417;16.484;102.872;2022-12-18T11:42:20;43.85;;;21.65;;
18574;SDS011;9417;16.484;102.872;2022-12-18T11:44:38;39.53;;;22.02;;
18574;SDS011;9417;16.484;102.872;2022-12-18T11:46:51;35.25;;;19.20;;
18574;SDS011;9417;16.484;102.872;2022-12-18T11:49:03;29.98;;;14.55;;
18574;SDS011;9417;16.484;102.872;2022-12-18T11:51:18;44.00;;;16.88;;
18574;SDS011;9417;16.484;102.872;2022-12-18T11:53:31;30.83;;;15.65;;
18574;SDS011;9417;16.484;102.872;2022-12-18T11:55:43;31.17;;;16.00;;
18574;SDS011;9417;16.484;102.872;2022-12-18T11:58:01;29.75;;;15.57;;
18574;SDS011;9417;16.484;102.872;2022-12-18T12:00:17;28.17;;;14.75;;
18574;SDS011;9417;16.484;102.872;2022-12-18T12:02:33;30.05;;;14.85;;
18574;SDS011;9417;16.484;102.872;2022-12-18T12:04:53;20.88;;;12.95;;
18574;SDS011;9417;16.484;102.872;2022-12-18T12:07:18;29.90;;;13.73;;
18574;SDS011;9417;16.484;102.872;2022-12-18T12:09:35;29.77;;;12.90;;
18574;SDS011;9417;16.484;102.872;2022-12-18T12:11:48;27.00;;;13.73;;
18574;SDS011;9417;16.484;102.872;2022-12-18T12:14:06;26.55;;;14.68;;
18574;SDS011;9417;16.484;102.872;2022-12-18T12:16:25;24.85;;;13.88;;
18574;SDS011;9417;16.484;102.872;2022-12-18T12:18:45;26.75;;;14.90;;
18574;SDS011;9417;16.484;102.872;2022-12-18T12:21:06;30.73;;;14.25;;
18574;SDS011;9417;16.484;102.872;2022-12-18T12:23:22;27.60;;;15.57;;
18574;SDS011;9417;16.484;102.872;2022-12-18T12:25:39;27.45;;;15.15;;
18574;SDS011;9417;16.484;102.872;2022-12-18T12:27:51;31.27;;;17.17;;
18574;SDS011;9417;16.484;102.872;2022-12-18T12:30:06;31.35;;;15.57;;
18574;SDS011;9417;16.484;102.872;2022-12-18T12:32:20;30.65;;;15.15;;
18574;SDS011;9417;16.484;102.872;2022-12-18T12:34:38;26.80;;;14.52;;
18574;SDS011;9417;16.484;102.872;2022-12-18T12:36:57;31.50;;;14.65;;
18574;SDS011;9417;16.484;102.872;2022-12-18T12:39:21;26.92;;;13.00;;
18574;SDS011;9417;16.484;102.872;2022-12-18T12:41:32;30.00;;;13.93;;